createdAt,value
2023-03-11T00:00:45.583Z,3.13
2023-03-11T00:03:13.767Z,2.38
2023-03-11T00:05:41.295Z,2.70
2023-03-11T00:08:08.343Z,3.13
2023-03-11T00:10:36.348Z,3.30
2023-03-11T00:13:02.622Z,2.90
2023-03-11T00:15:29.081Z,3.00
2023-03-11T00:17:55.348Z,3.20
2023-03-11T00:20:23.418Z,3.15
2023-03-11T00:22:51.017Z,2.80
2023-03-11T00:25:17.650Z,3.15
2023-03-11T00:27:43.938Z,3.25
2023-03-11T00:30:12.195Z,2.65
2023-03-11T00:32:38.537Z,3.22
2023-03-11T00:35:05.149Z,3.20
2023-03-11T00:37:31.413Z,3.08
2023-03-11T00:39:57.596Z,2.85
2023-03-11T00:42:23.796Z,3.08
2023-03-11T00:44:50.130Z,2.40
2023-03-11T00:47:16.612Z,2.85
2023-03-11T00:49:43.153Z,2.88
2023-03-11T00:52:09.376Z,2.90
2023-03-11T00:54:35.673Z,3.05
2023-03-11T00:57:01.884Z,3.22
2023-03-11T00:59:28.138Z,2.80
2023-03-11T01:01:54.373Z,3.05
2023-03-11T01:04:20.616Z,3.45
2023-03-11T01:06:46.812Z,2.55
2023-03-11T01:09:13.202Z,2.50
2023-03-11T01:11:39.417Z,2.85
2023-03-11T01:14:05.698Z,2.30
2023-03-11T01:16:31.984Z,2.90
2023-03-11T01:18:58.196Z,2.47
2023-03-11T01:21:24.524Z,2.70
2023-03-11T01:23:50.724Z,2.72
2023-03-11T01:26:16.952Z,2.53
2023-03-11T01:28:43.241Z,3.08
2023-03-11T01:31:10.121Z,2.22
2023-03-11T01:33:36.377Z,2.03
2023-03-11T01:36:02.723Z,3.08
2023-03-11T01:38:29.138Z,2.85
2023-03-11T01:40:55.353Z,2.47
2023-03-11T01:43:40.718Z,3.10
2023-03-11T01:46:10.022Z,2.70
2023-03-11T01:48:38.714Z,2.28
2023-03-11T01:51:05.749Z,3.25
2023-03-11T01:53:32.531Z,2.50
2023-03-11T01:55:58.944Z,2.72
2023-03-11T01:58:26.696Z,3.50
2023-03-11T02:00:53.666Z,3.10
2023-03-11T02:03:25.968Z,2.83
2023-03-11T02:05:53.224Z,3.00
2023-03-11T02:08:19.548Z,3.20
2023-03-11T02:10:46.382Z,3.03
2023-03-11T02:13:12.726Z,3.55
2023-03-11T02:15:40.117Z,2.80
2023-03-11T02:18:07.140Z,2.95
2023-03-11T02:20:36.376Z,3.00
2023-03-11T02:23:02.714Z,2.70
2023-03-11T02:25:42.869Z,2.88
2023-03-11T02:28:11.292Z,2.55
2023-03-11T02:30:39.605Z,2.72
2023-03-11T02:33:06.339Z,3.15
2023-03-11T02:35:32.656Z,2.70
2023-03-11T02:37:58.874Z,2.60
2023-03-11T02:40:26.826Z,2.97
2023-03-11T02:42:55.087Z,2.53
2023-03-11T02:45:24.180Z,2.72
2023-03-11T02:47:51.674Z,3.05
2023-03-11T02:50:18.689Z,2.78
2023-03-11T02:52:45.090Z,2.75
2023-03-11T02:55:15.952Z,2.97
2023-03-11T02:57:42.590Z,2.75
2023-03-11T03:00:16.623Z,2.47
2023-03-11T03:02:44.022Z,3.08
2023-03-11T03:05:10.952Z,2.60
2023-03-11T03:07:37.210Z,2.30
2023-03-11T03:10:04.258Z,2.20
2023-03-11T03:12:30.598Z,2.67
2023-03-11T03:14:58.035Z,2.58
2023-03-11T03:17:24.669Z,2.72
2023-03-11T03:19:50.960Z,2.45
2023-03-11T03:22:17.149Z,2.25
2023-03-11T03:24:43.411Z,2.65
2023-03-11T03:27:09.614Z,3.25
2023-03-11T03:29:35.842Z,2.58
2023-03-11T03:32:02.105Z,2.40
2023-03-11T03:34:28.371Z,2.22
2023-03-11T03:36:54.610Z,2.33
2023-03-11T03:39:20.822Z,2.67
2023-03-11T03:41:47.040Z,2.38
2023-03-11T03:44:13.241Z,2.38
2023-03-11T03:46:39.503Z,2.50
2023-03-11T03:49:05.766Z,2.58
2023-03-11T03:51:31.997Z,2.38
2023-03-11T03:53:58.213Z,2.35
2023-03-11T03:56:24.428Z,2.40
2023-03-11T03:58:50.668Z,2.55
2023-03-11T04:01:16.885Z,2.40
2023-03-11T04:03:43.174Z,2.45
2023-03-11T04:06:10.913Z,2.22
2023-03-11T04:08:37.628Z,2.20
2023-03-11T04:11:04.018Z,2.65
2023-03-11T04:13:30.272Z,2.70
2023-03-11T04:15:56.480Z,3.10
2023-03-11T04:18:22.900Z,2.60
2023-03-11T04:20:49.124Z,2.78
2023-03-11T04:23:15.557Z,2.25
2023-03-11T04:25:41.743Z,2.00
2023-03-11T04:28:08.026Z,2.97
2023-03-11T04:30:34.411Z,2.00
2023-03-11T04:33:00.696Z,2.38
2023-03-11T04:35:26.973Z,2.67
2023-03-11T04:37:53.230Z,2.40
2023-03-11T04:40:19.560Z,2.58
2023-03-11T04:42:45.751Z,2.42
2023-03-11T04:45:12.064Z,2.45
2023-03-11T04:47:38.281Z,2.72
2023-03-11T04:50:04.699Z,2.88
2023-03-11T04:52:30.939Z,2.85
2023-03-11T04:54:57.159Z,2.55
2023-03-11T04:57:23.477Z,2.30
2023-03-11T04:59:49.710Z,3.10
2023-03-11T05:02:15.931Z,2.40
2023-03-11T05:04:42.286Z,2.42
2023-03-11T05:07:08.593Z,2.50
2023-03-11T05:09:35.107Z,2.67
2023-03-11T05:12:01.674Z,2.45
2023-03-11T05:14:27.947Z,2.33
2023-03-11T05:16:54.142Z,2.83
2023-03-11T05:19:34.480Z,2.38
2023-03-11T05:22:02.103Z,2.55
2023-03-11T05:24:28.474Z,3.13
2023-03-11T05:26:55.147Z,2.88
2023-03-11T05:29:21.695Z,3.00
2023-03-11T05:31:48.091Z,2.67
2023-03-11T05:34:14.861Z,2.65
2023-03-11T05:36:41.131Z,2.95
2023-03-11T05:39:07.599Z,3.00
2023-03-11T05:41:33.849Z,3.00
2023-03-11T05:44:00.068Z,2.63
2023-03-11T05:46:26.347Z,2.78
2023-03-11T05:48:52.620Z,3.03
2023-03-11T05:51:19.158Z,2.80
2023-03-11T05:53:48.220Z,3.00
2023-03-11T05:56:15.173Z,2.85
2023-03-11T05:58:41.726Z,2.50
2023-03-11T06:01:11.487Z,3.08
2023-03-11T06:03:38.484Z,3.30
2023-03-11T06:06:05.881Z,3.45
2023-03-11T06:08:34.378Z,3.25
2023-03-11T06:11:01.074Z,3.20
2023-03-11T06:13:27.306Z,3.00
2023-03-11T06:15:53.573Z,3.63
2023-03-11T06:18:19.782Z,2.92
2023-03-11T06:20:45.995Z,3.00
2023-03-11T06:23:12.207Z,2.95
2023-03-11T06:25:38.448Z,3.42
2023-03-11T06:28:05.490Z,3.10
2023-03-11T06:30:31.783Z,3.05
2023-03-11T06:32:58.054Z,3.38
2023-03-11T06:35:24.360Z,3.60
2023-03-11T06:37:50.574Z,3.50
2023-03-11T06:40:16.965Z,3.42
2023-03-11T06:42:45.479Z,3.47
2023-03-11T06:45:11.737Z,3.50
2023-03-11T06:47:37.972Z,3.40
2023-03-11T06:50:06.623Z,3.55
2023-03-11T06:52:32.912Z,3.70
2023-03-11T06:54:59.140Z,3.40
2023-03-11T06:57:26.699Z,3.40
2023-03-11T06:59:53.140Z,3.55
2023-03-11T07:02:19.374Z,3.42
2023-03-11T07:04:48.617Z,3.80
2023-03-11T07:07:14.825Z,3.58
2023-03-11T07:09:41.076Z,3.78
2023-03-11T07:12:07.422Z,4.32
2023-03-11T07:14:33.796Z,3.50
2023-03-11T07:17:00.224Z,4.07
2023-03-11T07:19:26.475Z,3.95
2023-03-11T07:21:52.729Z,3.70
2023-03-11T07:24:18.960Z,3.88
2023-03-11T07:26:45.249Z,3.22
2023-03-11T07:29:11.478Z,3.67
2023-03-11T07:31:37.702Z,3.55
2023-03-11T07:34:05.162Z,3.97
2023-03-11T07:36:31.932Z,3.78
2023-03-11T07:38:59.573Z,4.22
2023-03-11T07:41:26.474Z,3.65
2023-03-11T07:43:56.493Z,3.75
2023-03-11T07:46:23.370Z,3.50
2023-03-11T07:48:50.411Z,3.78
2023-03-11T07:51:24.274Z,3.53
2023-03-11T07:53:51.869Z,3.25
2023-03-11T07:56:18.910Z,3.60
2023-03-11T07:58:45.900Z,3.35
2023-03-11T08:01:16.552Z,3.42
2023-03-11T08:03:43.462Z,3.45
2023-03-11T08:06:17.214Z,3.20
2023-03-11T08:08:43.454Z,3.35
2023-03-11T08:11:10.285Z,3.38
2023-03-11T08:13:36.476Z,3.25
2023-03-11T08:16:03.927Z,2.72
2023-03-11T08:18:30.861Z,3.20
2023-03-11T08:20:57.322Z,3.03
2023-03-11T08:23:23.553Z,2.30
2023-03-11T08:25:49.760Z,2.50
2023-03-11T08:28:16.189Z,2.95
2023-03-11T08:30:42.652Z,2.70
2023-03-11T08:33:08.942Z,2.67
2023-03-11T08:35:35.219Z,2.80
2023-03-11T08:38:01.590Z,2.33
2023-03-11T08:40:27.796Z,2.42
2023-03-11T08:42:55.227Z,2.75
2023-03-11T08:45:21.590Z,2.85
2023-03-11T08:47:47.974Z,2.75
2023-03-11T08:50:15.746Z,2.17
2023-03-11T08:52:41.981Z,2.03
2023-03-11T08:55:11.144Z,2.15
2023-03-11T08:57:38.291Z,2.63
2023-03-11T09:00:05.376Z,2.20
2023-03-11T09:02:31.675Z,2.10
2023-03-11T09:04:57.917Z,2.20
2023-03-11T09:07:24.231Z,2.08
2023-03-11T09:09:50.600Z,2.20
2023-03-11T09:12:16.916Z,1.70
2023-03-11T09:14:43.274Z,1.80
2023-03-11T09:17:10.478Z,1.60
2023-03-11T09:19:36.740Z,1.42
2023-03-11T09:22:03.494Z,1.50
2023-03-11T09:24:30.098Z,1.40
2023-03-11T09:26:56.316Z,1.60
2023-03-11T09:29:22.541Z,1.92
2023-03-11T09:31:48.905Z,1.83
2023-03-11T09:34:16.194Z,1.83
2023-03-11T09:36:42.665Z,2.03
2023-03-11T09:39:09.398Z,1.50
2023-03-11T09:41:57.587Z,1.33
2023-03-11T09:44:34.141Z,1.30
2023-03-11T09:47:03.924Z,1.10
2023-03-11T09:49:48.821Z,1.20
2023-03-11T09:52:28.853Z,1.30
2023-03-11T09:54:55.585Z,1.17
2023-03-11T09:57:24.402Z,1.50
2023-03-11T09:59:51.097Z,1.55
2023-03-11T10:02:19.374Z,1.52
2023-03-11T10:04:58.027Z,1.60
2023-03-11T10:07:27.725Z,1.70
2023-03-11T10:09:58.275Z,1.90
2023-03-11T10:12:39.479Z,1.83
2023-03-11T10:15:24.832Z,1.65
2023-03-11T10:17:51.033Z,1.60
2023-03-11T10:20:21.834Z,1.65
2023-03-11T10:23:06.503Z,1.20
2023-03-11T10:25:51.309Z,0.93
2023-03-11T10:28:18.852Z,1.20
2023-03-11T10:30:47.240Z,1.33
2023-03-11T10:33:22.692Z,1.63
2023-03-11T10:35:53.678Z,1.50
2023-03-11T10:38:25.604Z,1.70
2023-03-11T10:40:54.492Z,1.52
2023-03-11T10:43:20.648Z,1.55
2023-03-11T10:45:49.422Z,1.38
2023-03-11T10:48:16.514Z,1.58
2023-03-11T10:50:45.922Z,1.38
2023-03-11T10:53:16.324Z,1.30
2023-03-11T10:55:47.062Z,1.20
2023-03-11T10:58:15.068Z,1.10
2023-03-11T11:00:41.467Z,1.08
2023-03-11T11:03:21.709Z,1.20
2023-03-11T11:05:56.973Z,1.27
2023-03-11T11:08:23.278Z,1.50
2023-03-11T11:11:00.191Z,1.42
2023-03-11T11:13:27.538Z,1.33
2023-03-11T11:15:55.412Z,1.60
2023-03-11T11:18:23.748Z,1.30
2023-03-11T11:20:57.184Z,2.08
2023-03-11T11:23:27.740Z,1.83
2023-03-11T11:25:58.615Z,1.88
2023-03-11T11:28:24.952Z,1.30
2023-03-11T11:30:55.952Z,1.30
2023-03-11T11:33:26.892Z,1.40
2023-03-11T11:35:54.887Z,1.83
2023-03-11T11:38:23.935Z,1.50
2023-03-11T11:40:50.756Z,1.38
2023-03-11T11:43:21.488Z,1.40
2023-03-11T11:45:54.178Z,1.50
2023-03-11T11:48:32.574Z,2.03
2023-03-11T11:51:03.184Z,1.80
2023-03-11T11:53:48.485Z,1.60
2023-03-11T11:56:14.860Z,1.95
2023-03-11T11:58:41.522Z,1.80
2023-03-11T12:01:08.120Z,1.77
2023-03-11T12:03:43.572Z,1.60
2023-03-11T12:06:17.413Z,1.83
2023-03-11T12:08:53.213Z,1.77
2023-03-11T12:11:41.847Z,1.30
2023-03-11T12:14:11.930Z,1.65
2023-03-11T12:16:43.672Z,1.52
2023-03-11T12:19:12.598Z,1.63
2023-03-11T12:21:47.819Z,1.98
2023-03-11T12:24:23.419Z,2.08
2023-03-11T12:26:52.481Z,1.90
2023-03-11T12:29:29.954Z,1.95
2023-03-11T12:31:56.774Z,1.50
2023-03-11T12:34:24.634Z,2.00
2023-03-11T12:36:51.385Z,1.40
2023-03-11T12:39:23.113Z,2.15
2023-03-11T12:41:49.900Z,2.13
2023-03-11T12:44:26.489Z,1.35
2023-03-11T12:46:58.640Z,1.55
2023-03-11T12:49:26.026Z,1.85
2023-03-11T12:52:07.656Z,1.80
2023-03-11T12:57:08.013Z,1.25
2023-03-11T12:59:41.506Z,1.50
2023-03-11T13:02:28.877Z,1.67
2023-03-11T13:05:17.850Z,1.60
2023-03-11T13:08:09.957Z,1.38
2023-03-11T13:10:36.351Z,1.63
2023-03-11T13:13:21.731Z,1.25
2023-03-11T13:15:47.963Z,1.42
2023-03-11T13:18:16.603Z,1.75
2023-03-11T13:20:44.854Z,1.38
2023-03-11T13:23:14.139Z,1.80
2023-03-11T13:25:43.345Z,1.60
2023-03-11T13:28:28.565Z,1.60
2023-03-11T13:31:14.485Z,1.70
2023-03-11T13:33:49.807Z,1.77
2023-03-11T13:36:15.996Z,1.58
2023-03-11T13:39:10.511Z,2.15
2023-03-11T13:41:37.763Z,4.15
2023-03-11T13:44:11.548Z,3.83
2023-03-11T13:46:40.058Z,4.50
2023-03-11T13:49:09.043Z,2.90
2023-03-11T13:51:37.783Z,3.03
2023-03-11T13:54:27.468Z,1.88
2023-03-11T13:56:55.618Z,1.67
2023-03-11T13:59:29.429Z,1.80
2023-03-11T14:02:14.285Z,1.90
2023-03-11T14:04:42.661Z,2.00
2023-03-11T14:07:13.333Z,1.80
2023-03-11T14:09:39.646Z,2.10
2023-03-11T14:12:07.727Z,2.00
2023-03-11T14:14:34.108Z,1.40
2023-03-11T14:17:01.457Z,1.90
2023-03-11T14:19:28.702Z,1.50
2023-03-11T14:21:58.011Z,1.65
2023-03-11T14:24:30.256Z,2.15
2023-03-11T14:26:58.119Z,2.17
2023-03-11T14:29:45.210Z,1.92
2023-03-11T14:32:16.076Z,2.03
2023-03-11T14:34:42.345Z,2.30
2023-03-11T14:37:23.474Z,2.47
2023-03-11T14:39:53.406Z,4.65
2023-03-11T14:42:34.309Z,2.67
2023-03-11T14:45:10.557Z,3.33
2023-03-11T14:47:47.278Z,2.45
2023-03-11T14:50:16.544Z,2.30
2023-03-11T14:52:48.592Z,1.80
2023-03-11T14:55:36.250Z,2.38
2023-03-11T14:58:07.738Z,2.30
2023-03-11T15:03:00.232Z,2.05
2023-03-11T15:05:35.228Z,2.47
2023-03-11T15:08:02.837Z,2.47
2023-03-11T15:10:29.135Z,2.00
2023-03-11T15:13:06.093Z,1.80
2023-03-11T15:15:32.361Z,2.13
2023-03-11T15:17:59.962Z,2.08
2023-03-11T15:20:34.633Z,2.17
2023-03-11T15:23:05.868Z,2.15
2023-03-11T15:25:34.015Z,2.10
2023-03-11T15:28:13.949Z,1.88
2023-03-11T15:30:40.444Z,2.20
2023-03-11T15:33:19.927Z,2.20
2023-03-11T15:35:47.064Z,2.10
2023-03-11T15:38:23.493Z,2.00
2023-03-11T15:40:51.562Z,2.38
2023-03-11T15:43:23.764Z,2.00
2023-03-11T15:45:53.364Z,2.22
2023-03-11T15:48:19.954Z,2.20
2023-03-11T15:50:56.249Z,2.10
2023-03-11T15:53:23.357Z,2.42
2023-03-11T15:55:49.768Z,2.17
2023-03-11T15:58:17.358Z,2.00
2023-03-11T16:00:47.282Z,2.28
2023-03-11T16:03:13.547Z,2.55
2023-03-11T16:05:39.818Z,2.10
2023-03-11T16:08:06.062Z,1.90
2023-03-11T16:10:32.367Z,2.55
2023-03-11T16:12:58.635Z,2.20
2023-03-11T16:15:28.537Z,2.10
2023-03-11T16:17:56.059Z,2.10
2023-03-11T16:20:23.323Z,1.98
2023-03-11T16:22:51.339Z,1.95
2023-03-11T16:25:20.036Z,2.17
2023-03-11T16:27:46.210Z,1.85
2023-03-11T16:30:12.637Z,1.90
2023-03-11T16:32:39.435Z,2.00
2023-03-11T16:35:05.907Z,2.55
2023-03-11T16:37:32.094Z,1.83
2023-03-11T16:39:58.342Z,2.22
2023-03-11T16:42:24.604Z,2.20
2023-03-11T16:44:51.007Z,2.00
2023-03-11T16:47:17.365Z,1.50
2023-03-11T16:49:43.574Z,2.03
2023-03-11T16:52:10.283Z,1.95
2023-03-11T16:54:36.686Z,1.90
2023-03-11T16:57:02.982Z,1.75
2023-03-11T16:59:29.573Z,2.75
2023-03-11T17:01:56.081Z,2.38
2023-03-11T17:04:22.304Z,2.55
2023-03-11T17:06:48.527Z,2.20
2023-03-11T17:09:14.729Z,2.10
2023-03-11T17:11:40.921Z,1.90
2023-03-11T17:14:16.185Z,2.10
2023-03-11T17:16:43.995Z,1.85
2023-03-11T17:19:10.229Z,2.13
2023-03-11T17:21:36.465Z,2.25
2023-03-11T17:24:02.703Z,1.92
2023-03-11T17:26:31.489Z,2.67
2023-03-11T17:28:57.710Z,2.22
2023-03-11T17:31:24.111Z,2.35
2023-03-11T17:33:50.685Z,2.00
2023-03-11T17:36:17.601Z,2.40
2023-03-11T17:38:44.240Z,2.33
2023-03-11T17:41:12.560Z,2.28
2023-03-11T17:43:39.289Z,2.30
2023-03-11T17:46:14.331Z,2.40
2023-03-11T17:48:44.609Z,2.63
2023-03-11T17:51:12.095Z,2.83
2023-03-11T17:53:39.049Z,3.67
2023-03-11T17:56:06.096Z,3.22
2023-03-11T17:58:32.437Z,2.92
2023-03-11T18:00:59.152Z,3.20
2023-03-11T18:03:25.430Z,3.70
2023-03-11T18:05:56.306Z,4.03
2023-03-11T18:08:22.583Z,4.15
2023-03-11T18:10:49.611Z,5.13
2023-03-11T18:13:15.793Z,5.50
2023-03-11T18:15:42.052Z,6.90
2023-03-11T18:18:08.332Z,6.45
2023-03-11T18:20:36.710Z,7.55
2023-03-11T18:23:03.106Z,6.90
2023-03-11T18:25:29.349Z,5.72
2023-03-11T18:27:55.716Z,6.80
2023-03-11T18:30:22.071Z,4.65
2023-03-11T18:32:49.351Z,6.97
2023-03-11T18:35:17.465Z,6.10
2023-03-11T18:37:43.675Z,10.57
2023-03-11T18:40:10.459Z,11.23
2023-03-11T18:42:36.944Z,8.55
2023-03-11T18:45:03.342Z,9.40
2023-03-11T18:47:33.102Z,7.15
2023-03-11T18:49:59.372Z,7.63
2023-03-11T18:52:25.570Z,5.45
2023-03-11T18:54:51.764Z,5.95
2023-03-11T18:57:17.991Z,5.20
2023-03-11T18:59:44.215Z,5.60
2023-03-11T19:02:10.905Z,5.53
2023-03-11T19:04:37.127Z,6.00
2023-03-11T19:07:03.384Z,5.30
2023-03-11T19:09:29.610Z,5.35
2023-03-11T19:11:55.801Z,5.45
2023-03-11T19:14:22.014Z,5.13
2023-03-11T19:16:48.316Z,5.72
2023-03-11T19:19:14.575Z,5.10
2023-03-11T19:21:40.854Z,4.60
2023-03-11T19:24:07.091Z,4.55
2023-03-11T19:26:45.778Z,4.70
2023-03-11T19:29:13.376Z,3.75
2023-03-11T19:31:39.677Z,3.75
2023-03-11T19:34:05.912Z,4.10
2023-03-11T19:36:32.162Z,4.20
2023-03-11T19:38:58.350Z,4.20
2023-03-11T19:41:24.542Z,4.75
2023-03-11T19:43:51.729Z,4.07
2023-03-11T19:46:18.969Z,4.32
2023-03-11T19:48:45.282Z,4.68
2023-03-11T19:51:14.401Z,4.07
2023-03-11T19:53:41.532Z,4.20
2023-03-11T19:56:08.678Z,3.95
2023-03-11T19:58:35.216Z,3.75
2023-03-11T20:01:04.768Z,3.97
2023-03-11T20:03:31.020Z,4.45
2023-03-11T20:06:02.919Z,4.22
2023-03-11T20:08:30.195Z,3.60
2023-03-11T20:11:00.464Z,4.22
2023-03-11T20:13:26.750Z,4.10
2023-03-11T20:15:53.076Z,4.38
2023-03-11T20:18:19.449Z,4.22
2023-03-11T20:20:46.452Z,4.07
2023-03-11T20:23:12.983Z,3.83
2023-03-11T20:25:39.942Z,3.60
2023-03-11T20:28:06.640Z,4.25
2023-03-11T20:30:32.965Z,3.60
2023-03-11T20:32:59.212Z,3.97
2023-03-11T20:35:25.439Z,3.97
2023-03-11T20:37:51.704Z,4.53
2023-03-11T20:40:18.249Z,4.65
2023-03-11T20:42:47.345Z,4.55
2023-03-11T20:45:14.789Z,5.20
2023-03-11T20:47:43.738Z,5.93
2023-03-11T20:50:10.987Z,5.40
2023-03-11T20:52:37.298Z,5.20
2023-03-11T20:55:04.226Z,6.13
2023-03-11T20:57:30.499Z,6.20
2023-03-11T20:59:56.774Z,6.38
2023-03-11T21:02:23.109Z,6.28
2023-03-11T21:04:49.557Z,6.70
2023-03-11T21:07:15.938Z,6.53
2023-03-11T21:09:42.207Z,6.65
2023-03-11T21:12:08.633Z,7.15
2023-03-11T21:14:35.418Z,7.15
2023-03-11T21:17:01.762Z,7.45
2023-03-11T21:19:28.328Z,7.47
2023-03-11T21:21:54.615Z,6.82
2023-03-11T21:24:20.997Z,7.00
2023-03-11T21:26:48.265Z,5.93
2023-03-11T21:29:14.503Z,6.97
2023-03-11T21:31:40.906Z,6.65
2023-03-11T21:34:09.732Z,7.25
2023-03-11T21:36:37.641Z,7.13
2023-03-11T21:39:04.532Z,7.50
2023-03-11T21:41:30.825Z,7.00
2023-03-11T21:43:57.384Z,7.03
2023-03-11T21:46:25.120Z,8.07
2023-03-11T21:48:51.589Z,8.00
2023-03-11T21:51:18.765Z,8.60
2023-03-11T21:53:45.520Z,7.80
2023-03-11T21:56:13.235Z,7.85
2023-03-11T21:58:39.767Z,7.35
2023-03-11T22:01:06.819Z,8.40
2023-03-11T22:03:35.674Z,9.20
2023-03-11T22:06:06.228Z,8.48
2023-03-11T22:08:32.670Z,9.70
2023-03-11T22:10:58.963Z,9.05
2023-03-11T22:13:25.293Z,8.43
2023-03-11T22:15:51.948Z,9.40
2023-03-11T22:18:18.269Z,9.15
2023-03-11T22:20:44.720Z,10.15
2023-03-11T22:23:11.006Z,10.18
2023-03-11T22:25:37.244Z,9.10
2023-03-11T22:28:03.549Z,10.43
2023-03-11T22:30:30.120Z,10.25
2023-03-11T22:32:56.399Z,9.98
2023-03-11T22:35:22.655Z,8.80
2023-03-11T22:37:48.856Z,9.05
2023-03-11T22:40:15.055Z,9.77
2023-03-11T22:42:41.294Z,10.02
2023-03-11T22:45:07.635Z,10.65
2023-03-11T22:47:33.909Z,10.68
2023-03-11T22:50:00.185Z,9.93
2023-03-11T22:52:26.534Z,9.60
2023-03-11T22:54:52.791Z,9.98
2023-03-11T22:57:19.082Z,10.45
2023-03-11T22:59:45.306Z,9.98
2023-03-11T23:02:11.804Z,10.77
2023-03-11T23:04:38.011Z,9.90
2023-03-11T23:07:04.590Z,10.35
2023-03-11T23:09:30.785Z,10.20
2023-03-11T23:11:57.054Z,10.15
2023-03-11T23:14:30.659Z,9.73
2023-03-11T23:17:04.792Z,9.13
2023-03-11T23:19:32.233Z,9.88
2023-03-11T23:21:58.487Z,9.68
2023-03-11T23:24:24.740Z,9.77
2023-03-11T23:26:51.005Z,9.10
2023-03-11T23:29:17.234Z,9.70
2023-03-11T23:31:43.425Z,9.00
2023-03-11T23:34:09.649Z,8.30
2023-03-11T23:36:35.944Z,8.63
2023-03-11T23:39:02.194Z,9.00
2023-03-11T23:41:29.055Z,8.65
2023-03-11T23:43:55.339Z,8.50
2023-03-11T23:46:21.613Z,8.43
2023-03-11T23:48:47.886Z,8.07
2023-03-11T23:51:14.137Z,7.85
2023-03-11T23:53:40.438Z,8.18
2023-03-11T23:56:08.913Z,7.93
2023-03-11T23:58:35.213Z,7.70
